sensor_id;sensor_type;location;lat;lon;timestamp;pressure;altitude;pressure_sealevel;temperature;humidity
73870;BME280;64924;42.140;24.762;2023-03-11T00:00:41;97819.47;;;14.21;57.72
73870;BME280;64924;42.140;24.762;2023-03-11T00:03:07;97833.72;;;14.28;57.03
73870;BME280;64924;42.140;24.762;2023-03-11T00:05:38;97821.28;;;14.42;56.72
73870;BME280;64924;42.140;24.762;2023-03-11T00:08:06;97831.09;;;14.48;56.47
73870;BME280;64924;42.140;24.762;2023-03-11T00:10:41;97801.31;;;14.42;56.69
73870;BME280;64924;42.140;24.762;2023-03-11T00:13:09;97817.72;;;14.42;57.09
73870;BME280;64924;42.140;24.762;2023-03-11T00:15:36;97802.91;;;14.37;56.67
73870;BME280;64924;42.140;24.762;2023-03-11T00:18:03;97795.06;;;14.56;56.36
73870;BME280;64924;42.140;24.762;2023-03-11T00:20:31;97789.13;;;14.69;55.95
73870;BME280;64924;42.140;24.762;2023-03-11T00:22:58;97777.31;;;14.59;56.08
73870;BME280;64924;42.140;24.762;2023-03-11T00:25:26;97770.22;;;14.58;56.20
73870;BME280;64924;42.140;24.762;2023-03-11T00:27:53;97783.50;;;14.39;57.14
73870;BME280;64924;42.140;24.762;2023-03-11T00:30:19;97770.91;;;14.33;57.15
73870;BME280;64924;42.140;24.762;2023-03-11T00:32:50;97766.13;;;14.60;56.72
73870;BME280;64924;42.140;24.762;2023-03-11T00:35:19;97765.00;;;14.46;56.69
73870;BME280;64924;42.140;24.762;2023-03-11T00:37:46;97752.97;;;14.42;56.74
73870;BME280;64924;42.140;24.762;2023-03-11T00:40:15;97744.22;;;14.50;56.53
73870;BME280;64924;42.140;24.762;2023-03-11T00:42:42;97739.03;;;14.49;56.53
73870;BME280;64924;42.140;24.762;2023-03-11T00:45:08;97679.59;;;14.14;56.76
73870;BME280;64924;42.140;24.762;2023-03-11T00:47:34;97710.78;;;14.28;56.67
73870;BME280;64924;42.140;24.762;2023-03-11T00:49:59;97707.63;;;14.46;56.32
73870;BME280;64924;42.140;24.762;2023-03-11T00:52:25;97717.75;;;14.56;56.48
73870;BME280;64924;42.140;24.762;2023-03-11T00:54:51;97719.00;;;14.33;57.11
73870;BME280;64924;42.140;24.762;2023-03-11T00:57:16;97702.53;;;14.13;57.37
73870;BME280;64924;42.140;24.762;2023-03-11T00:59:42;97719.44;;;14.04;57.68
73870;BME280;64924;42.140;24.762;2023-03-11T01:02:07;97717.16;;;13.86;58.29
73870;BME280;64924;42.140;24.762;2023-03-11T01:04:33;97711.53;;;14.03;57.86
73870;BME280;64924;42.140;24.762;2023-03-11T01:06:58;97711.56;;;14.18;57.47
73870;BME280;64924;42.140;24.762;2023-03-11T01:09:24;97699.31;;;14.26;57.20
73870;BME280;64924;42.140;24.762;2023-03-11T01:11:49;97697.88;;;14.03;57.89
73870;BME280;64924;42.140;24.762;2023-03-11T01:14:16;97687.19;;;13.96;58.46
73870;BME280;64924;42.140;24.762;2023-03-11T01:16:42;97695.66;;;14.00;58.17
73870;BME280;64924;42.140;24.762;2023-03-11T01:19:07;97687.38;;;13.85;58.52
73870;BME280;64924;42.140;24.762;2023-03-11T01:21:33;97687.56;;;13.63;59.72
73870;BME280;64924;42.140;24.762;2023-03-11T01:23:58;97627.66;;;12.99;61.25
73870;BME280;64924;42.140;24.762;2023-03-11T01:26:24;97672.56;;;13.23;61.10
73870;BME280;64924;42.140;24.762;2023-03-11T01:28:49;97671.81;;;13.33;60.73
73870;BME280;64924;42.140;24.762;2023-03-11T01:31:15;97615.63;;;13.32;60.50
73870;BME280;64924;42.140;24.762;2023-03-11T01:33:40;97669.88;;;13.76;59.97
73870;BME280;64924;42.140;24.762;2023-03-11T01:36:06;97676.22;;;13.86;59.44
73870;BME280;64924;42.140;24.762;2023-03-11T01:38:31;97675.69;;;13.89;59.38
73870;BME280;64924;42.140;24.762;2023-03-11T01:40:57;97680.66;;;14.02;58.84
73870;BME280;64924;42.140;24.762;2023-03-11T01:43:45;97682.34;;;14.09;58.92
73870;BME280;64924;42.140;24.762;2023-03-11T01:48:58;97674.25;;;13.77;60.38
73870;BME280;64924;42.140;24.762;2023-03-11T01:53:51;97660.56;;;13.66;60.80
73870;BME280;64924;42.140;24.762;2023-03-11T01:56:17;97675.06;;;13.72;60.07
73870;BME280;64924;42.140;24.762;2023-03-11T01:58:45;97659.44;;;13.62;60.99
73870;BME280;64924;42.140;24.762;2023-03-11T02:01:13;97667.00;;;13.50;61.11
73870;BME280;64924;42.140;24.762;2023-03-11T02:03:40;97658.13;;;13.70;60.82
73870;BME280;64924;42.140;24.762;2023-03-11T02:06:10;97649.25;;;13.48;61.39
73870;BME280;64924;42.140;24.762;2023-03-11T02:08:37;97623.38;;;13.55;61.30
73870;BME280;64924;42.140;24.762;2023-03-11T02:11:05;97620.97;;;13.64;61.16
73870;BME280;64924;42.140;24.762;2023-03-11T02:13:33;97621.25;;;13.62;61.01
73870;BME280;64924;42.140;24.762;2023-03-11T02:16:01;97642.56;;;13.70;60.97
73870;BME280;64924;42.140;24.762;2023-03-11T02:18:27;97607.91;;;13.71;59.88
73870;BME280;64924;42.140;24.762;2023-03-11T02:24:18;97658.28;;;14.16;59.09
73870;BME280;64924;42.140;24.762;2023-03-11T02:26:31;97702.88;;;14.26;58.89
73870;BME280;64924;42.140;24.762;2023-03-11T02:28:58;97660.69;;;13.97;59.16
73870;BME280;64924;42.140;24.762;2023-03-11T02:31:24;97716.19;;;14.13;59.01
73870;BME280;64924;42.140;24.762;2023-03-11T02:33:52;97730.88;;;13.96;59.42
73870;BME280;64924;42.140;24.762;2023-03-11T02:36:37;97725.94;;;13.93;59.47
73870;BME280;64924;42.140;24.762;2023-03-11T02:39:03;97725.22;;;13.66;59.97
73870;BME280;64924;42.140;24.762;2023-03-11T02:41:30;97695.53;;;13.32;59.96
73870;BME280;64924;42.140;24.762;2023-03-11T02:43:57;97689.81;;;13.34;60.27
73870;BME280;64924;42.140;24.762;2023-03-11T02:46:23;97732.84;;;13.64;59.84
73870;BME280;64924;42.140;24.762;2023-03-11T02:48:50;97721.47;;;13.72;59.59
73870;BME280;64924;42.140;24.762;2023-03-11T02:51:17;97706.41;;;13.64;59.36
73870;BME280;64924;42.140;24.762;2023-03-11T02:53:51;97679.59;;;13.56;59.44
73870;BME280;64924;42.140;24.762;2023-03-11T02:56:18;97711.84;;;13.64;59.65
73870;BME280;64924;42.140;24.762;2023-03-11T02:58:44;97667.72;;;13.30;60.04
73870;BME280;64924;42.140;24.762;2023-03-11T03:01:09;97688.09;;;13.60;59.47
73870;BME280;64924;42.140;24.762;2023-03-11T03:03:35;97672.34;;;13.72;59.46
73870;BME280;64924;42.140;24.762;2023-03-11T03:06:00;97656.47;;;13.69;59.29
73870;BME280;64924;42.140;24.762;2023-03-11T03:08:26;97646.91;;;13.66;59.26
73870;BME280;64924;42.140;24.762;2023-03-11T03:10:51;97625.34;;;13.65;59.20
73870;BME280;64924;42.140;24.762;2023-03-11T03:13:17;97612.78;;;13.64;59.76
73870;BME280;64924;42.140;24.762;2023-03-11T03:15:43;97606.88;;;13.30;60.21
73870;BME280;64924;42.140;24.762;2023-03-11T03:18:08;97612.13;;;13.36;60.47
73870;BME280;64924;42.140;24.762;2023-03-11T03:20:34;97614.84;;;13.42;60.38
73870;BME280;64924;42.140;24.762;2023-03-11T03:23:00;97604.81;;;13.52;60.39
73870;BME280;64924;42.140;24.762;2023-03-11T03:25:25;97600.19;;;13.53;59.96
73870;BME280;64924;42.140;24.762;2023-03-11T03:27:51;97616.56;;;13.58;59.73
73870;BME280;64924;42.140;24.762;2023-03-11T03:30:16;97611.38;;;13.56;59.79
73870;BME280;64924;42.140;24.762;2023-03-11T03:32:42;97610.56;;;13.56;59.79
73870;BME280;64924;42.140;24.762;2023-03-11T03:35:08;97609.91;;;13.38;60.22
73870;BME280;64924;42.140;24.762;2023-03-11T03:37:35;97578.81;;;13.34;60.22
73870;BME280;64924;42.140;24.762;2023-03-11T03:40:02;97582.13;;;13.42;59.65
73870;BME280;64924;42.140;24.762;2023-03-11T03:42:35;97609.97;;;13.49;60.12
73870;BME280;64924;42.140;24.762;2023-03-11T03:45:03;97611.13;;;13.58;59.84
73870;BME280;64924;42.140;24.762;2023-03-11T03:47:30;97611.16;;;13.63;59.78
73870;BME280;64924;42.140;24.762;2023-03-11T03:49:56;97597.09;;;13.39;59.90
73870;BME280;64924;42.140;24.762;2023-03-11T03:52:22;97604.59;;;13.59;59.31
73870;BME280;64924;42.140;24.762;2023-03-11T03:54:47;97608.44;;;13.68;58.83
73870;BME280;64924;42.140;24.762;2023-03-11T03:57:13;97620.22;;;13.79;58.72
73870;BME280;64924;42.140;24.762;2023-03-11T03:59:38;97634.09;;;13.67;59.00
73870;BME280;64924;42.140;24.762;2023-03-11T04:02:04;97659.22;;;13.69;59.28
73870;BME280;64924;42.140;24.762;2023-03-11T04:04:30;97678.31;;;13.69;59.29
73870;BME280;64924;42.140;24.762;2023-03-11T04:06:56;97667.94;;;13.66;58.95
73870;BME280;64924;42.140;24.762;2023-03-11T04:09:21;97687.66;;;13.83;58.54
73870;BME280;64924;42.140;24.762;2023-03-11T04:11:47;97694.44;;;13.76;58.61
73870;BME280;64924;42.140;24.762;2023-03-11T04:14:13;97662.72;;;13.64;58.80
73870;BME280;64924;42.140;24.762;2023-03-11T04:16:38;97699.13;;;13.85;58.61
73870;BME280;64924;42.140;24.762;2023-03-11T04:19:04;97700.25;;;13.89;58.42
73870;BME280;64924;42.140;24.762;2023-03-11T04:21:31;97709.31;;;14.00;58.10
73870;BME280;64924;42.140;24.762;2023-03-11T04:23:56;97714.56;;;14.17;57.57
73870;BME280;64924;42.140;24.762;2023-03-11T04:26:22;97721.44;;;14.24;57.37
73870;BME280;64924;42.140;24.762;2023-03-11T04:28:47;97706.38;;;14.17;57.47
73870;BME280;64924;42.140;24.762;2023-03-11T04:31:13;97725.50;;;14.17;57.29
73870;BME280;64924;42.140;24.762;2023-03-11T04:33:38;97731.19;;;14.05;57.80
73870;BME280;64924;42.140;24.762;2023-03-11T04:36:08;97751.72;;;14.18;57.64
73870;BME280;64924;42.140;24.762;2023-03-11T04:38:34;97736.31;;;13.96;57.45
73870;BME280;64924;42.140;24.762;2023-03-11T04:41:04;97767.50;;;14.05;57.67
73870;BME280;64924;42.140;24.762;2023-03-11T04:43:30;97741.13;;;13.79;58.74
73870;BME280;64924;42.140;24.762;2023-03-11T04:45:55;97709.88;;;13.55;58.30
73870;BME280;64924;42.140;24.762;2023-03-11T04:48:21;97736.75;;;13.78;58.28
73870;BME280;64924;42.140;24.762;2023-03-11T04:50:46;97743.78;;;13.64;59.00
73870;BME280;64924;42.140;24.762;2023-03-11T04:53:12;97710.84;;;13.38;59.02
73870;BME280;64924;42.140;24.762;2023-03-11T04:55:37;97746.28;;;13.76;58.38
73870;BME280;64924;42.140;24.762;2023-03-11T04:58:03;97737.31;;;13.80;58.03
73870;BME280;64924;42.140;24.762;2023-03-11T05:00:29;97739.63;;;13.98;57.37
73870;BME280;64924;42.140;24.762;2023-03-11T05:02:54;97732.81;;;14.01;57.16
73870;BME280;64924;42.140;24.762;2023-03-11T05:05:20;97741.84;;;14.07;57.44
73870;BME280;64924;42.140;24.762;2023-03-11T05:07:46;97740.75;;;14.08;56.99
73870;BME280;64924;42.140;24.762;2023-03-11T05:10:12;97701.06;;;13.90;57.10
73870;BME280;64924;42.140;24.762;2023-03-11T05:12:38;97739.66;;;14.14;56.60
73870;BME280;64924;42.140;24.762;2023-03-11T05:15:04;97742.69;;;14.17;56.21
73870;BME280;64924;42.140;24.762;2023-03-11T05:17:29;97731.44;;;14.03;56.18
73870;BME280;64924;42.140;24.762;2023-03-11T05:19:55;97741.84;;;14.12;56.28
73870;BME280;64924;42.140;24.762;2023-03-11T05:22:21;97749.00;;;14.23;56.33
73870;BME280;64924;42.140;24.762;2023-03-11T05:24:46;97743.81;;;14.21;56.02
73870;BME280;64924;42.140;24.762;2023-03-11T05:27:12;97746.84;;;14.30;56.23
73870;BME280;64924;42.140;24.762;2023-03-11T05:29:38;97741.22;;;14.42;55.79
73870;BME280;64924;42.140;24.762;2023-03-11T05:32:04;97742.31;;;14.51;55.59
73870;BME280;64924;42.140;24.762;2023-03-11T05:34:29;97744.81;;;14.62;55.19
73870;BME280;64924;42.140;24.762;2023-03-11T05:36:55;97752.72;;;14.59;55.17
73870;BME280;64924;42.140;24.762;2023-03-11T05:39:21;97739.34;;;14.57;55.01
73870;BME280;64924;42.140;24.762;2023-03-11T05:41:46;97694.44;;;14.38;54.82
73870;BME280;64924;42.140;24.762;2023-03-11T05:44:12;97742.09;;;14.67;54.91
73870;BME280;64924;42.140;24.762;2023-03-11T05:46:37;97733.66;;;14.74;54.80
73870;BME280;64924;42.140;24.762;2023-03-11T05:49:03;97744.59;;;14.74;54.96
73870;BME280;64924;42.140;24.762;2023-03-11T05:51:28;97719.16;;;14.74;54.63
73870;BME280;64924;42.140;24.762;2023-03-11T05:53:54;97731.22;;;14.83;54.55
73870;BME280;64924;42.140;24.762;2023-03-11T05:56:21;97706.59;;;14.73;54.59
73870;BME280;64924;42.140;24.762;2023-03-11T05:58:47;97735.06;;;15.12;53.78
73870;BME280;64924;42.140;24.762;2023-03-11T06:01:15;97732.06;;;15.19;53.52
73870;BME280;64924;42.140;24.762;2023-03-11T06:03:41;97709.91;;;15.30;53.16
73870;BME280;64924;42.140;24.762;2023-03-11T06:06:09;97732.06;;;15.69;52.06
73870;BME280;64924;42.140;24.762;2023-03-11T06:08:36;97725.47;;;15.96;51.66
73870;BME280;64924;42.140;24.762;2023-03-11T06:11:07;97718.53;;;16.19;50.56
73870;BME280;64924;42.140;24.762;2023-03-11T06:13:34;97710.56;;;16.27;50.52
73870;BME280;64924;42.140;24.762;2023-03-11T06:15:59;97709.38;;;16.98;48.94
73870;BME280;64924;42.140;24.762;2023-03-11T06:18:25;97690.81;;;17.48;47.67
73870;BME280;64924;42.140;24.762;2023-03-11T06:20:53;97653.28;;;17.72;46.52
73870;BME280;64924;42.140;24.762;2023-03-11T06:23:21;97649.38;;;18.21;45.49
73870;BME280;64924;42.140;24.762;2023-03-11T06:26:06;97685.91;;;18.88;44.67
73870;BME280;64924;42.140;24.762;2023-03-11T06:28:31;97689.31;;;18.80;44.56
73870;BME280;64924;42.140;24.762;2023-03-11T06:31:07;97689.56;;;18.59;44.66
73870;BME280;64924;42.140;24.762;2023-03-11T06:33:32;97682.66;;;18.43;45.10
73870;BME280;64924;42.140;24.762;2023-03-11T06:35:59;97683.75;;;18.42;44.96
73870;BME280;64924;42.140;24.762;2023-03-11T06:38:25;97687.16;;;18.34;45.21
73870;BME280;64924;42.140;24.762;2023-03-11T06:40:51;97680.59;;;18.11;45.56
73870;BME280;64924;42.140;24.762;2023-03-11T06:43:17;97693.09;;;17.98;46.27
73870;BME280;64924;42.140;24.762;2023-03-11T06:45:42;97692.13;;;17.84;46.36
73870;BME280;64924;42.140;24.762;2023-03-11T06:48:08;97704.47;;;17.58;46.59
73870;BME280;64924;42.140;24.762;2023-03-11T06:50:33;97696.84;;;17.50;47.01
73870;BME280;64924;42.140;24.762;2023-03-11T06:52:59;97684.91;;;17.35;46.88
73870;BME280;64924;42.140;24.762;2023-03-11T06:55:26;97698.97;;;17.29;47.03
73870;BME280;64924;42.140;24.762;2023-03-11T06:57:51;97692.09;;;17.31;46.81
73870;BME280;64924;42.140;24.762;2023-03-11T07:00:17;97684.94;;;17.30;46.39
73870;BME280;64924;42.140;24.762;2023-03-11T07:02:43;97683.56;;;17.33;46.08
73870;BME280;64924;42.140;24.762;2023-03-11T07:05:08;97686.84;;;17.35;46.02
73870;BME280;64924;42.140;24.762;2023-03-11T07:07:34;97686.50;;;17.42;46.04
73870;BME280;64924;42.140;24.762;2023-03-11T07:10:00;97678.56;;;17.40;45.36
73870;BME280;64924;42.140;24.762;2023-03-11T07:12:25;97679.84;;;17.48;45.13
73870;BME280;64924;42.140;24.762;2023-03-11T07:14:55;97657.59;;;17.20;45.39
73870;BME280;64924;42.140;24.762;2023-03-11T07:17:21;97690.00;;;17.47;44.94
73870;BME280;64924;42.140;24.762;2023-03-11T07:19:46;97674.47;;;17.66;44.84
73870;BME280;64924;42.140;24.762;2023-03-11T07:22:11;97692.69;;;18.10;44.15
73870;BME280;64924;42.140;24.762;2023-03-11T07:24:37;97676.44;;;18.94;42.43
73870;BME280;64924;42.140;24.762;2023-03-11T07:27:03;97645.72;;;19.84;40.03
73870;BME280;64924;42.140;24.762;2023-03-11T07:29:28;97674.56;;;21.05;38.06
73870;BME280;64924;42.140;24.762;2023-03-11T07:31:54;97671.59;;;21.99;36.23
73870;BME280;64924;42.140;24.762;2023-03-11T07:34:19;97670.03;;;22.55;34.82
73870;BME280;64924;42.140;24.762;2023-03-11T07:36:44;97640.28;;;22.87;33.67
73870;BME280;64924;42.140;24.762;2023-03-11T07:39:16;97674.00;;;23.15;33.13
73870;BME280;64924;42.140;24.762;2023-03-11T07:41:42;97670.59;;;22.83;33.17
73870;BME280;64924;42.140;24.762;2023-03-11T07:44:11;97668.97;;;22.91;33.25
73870;BME280;64924;42.140;24.762;2023-03-11T07:46:36;97658.63;;;22.65;33.74
73870;BME280;64924;42.140;24.762;2023-03-11T07:49:02;97667.41;;;22.50;33.81
73870;BME280;64924;42.140;24.762;2023-03-11T07:51:31;97668.66;;;22.35;34.24
73870;BME280;64924;42.140;24.762;2023-03-11T07:53:58;97673.03;;;22.28;34.48
73870;BME280;64924;42.140;24.762;2023-03-11T07:56:26;97681.34;;;21.97;35.40
73870;BME280;64924;42.140;24.762;2023-03-11T07:58:52;97662.88;;;21.75;35.34
73870;BME280;64924;42.140;24.762;2023-03-11T08:01:22;97636.38;;;21.74;35.44
73870;BME280;64924;42.140;24.762;2023-03-11T08:03:50;97663.16;;;22.44;34.77
73870;BME280;64924;42.140;24.762;2023-03-11T08:06:22;97648.28;;;22.97;33.46
73870;BME280;64924;42.140;24.762;2023-03-11T08:08:48;97668.28;;;23.54;32.72
73870;BME280;64924;42.140;24.762;2023-03-11T08:11:15;97624.78;;;23.93;31.44
73870;BME280;64924;42.140;24.762;2023-03-11T08:13:42;97616.78;;;24.29;30.03
73870;BME280;64924;42.140;24.762;2023-03-11T08:16:10;97634.56;;;24.58;29.62
73870;BME280;64924;42.140;24.762;2023-03-11T08:18:36;97640.41;;;24.44;29.81
73870;BME280;64924;42.140;24.762;2023-03-11T08:21:11;97608.91;;;23.64;30.04
73870;BME280;64924;42.140;24.762;2023-03-11T08:23:37;97643.16;;;23.51;30.52
73870;BME280;64924;42.140;24.762;2023-03-11T08:26:07;97636.84;;;23.24;30.82
73870;BME280;64924;42.140;24.762;2023-03-11T08:28:33;97581.41;;;22.21;31.91
73870;BME280;64924;42.140;24.762;2023-03-11T08:30:59;97640.69;;;22.46;32.26
73870;BME280;64924;42.140;24.762;2023-03-11T08:33:25;97643.59;;;22.32;32.85
73870;BME280;64924;42.140;24.762;2023-03-11T08:35:51;97614.56;;;21.73;33.43
73870;BME280;64924;42.140;24.762;2023-03-11T08:38:16;97659.53;;;21.87;33.61
73870;BME280;64924;42.140;24.762;2023-03-11T08:40:42;97656.72;;;21.78;33.75
73870;BME280;64924;42.140;24.762;2023-03-11T08:43:11;97656.59;;;21.52;34.40
73870;BME280;64924;42.140;24.762;2023-03-11T08:45:39;97646.88;;;21.19;35.54
73870;BME280;64924;42.140;24.762;2023-03-11T08:48:05;97607.03;;;20.89;35.23
73870;BME280;64924;42.140;24.762;2023-03-11T08:50:30;97636.72;;;21.06;35.13
73870;BME280;64924;42.140;24.762;2023-03-11T08:52:56;97648.81;;;21.18;34.61
73870;BME280;64924;42.140;24.762;2023-03-11T08:55:24;97649.59;;;21.10;34.31
73870;BME280;64924;42.140;24.762;2023-03-11T08:57:52;97645.09;;;21.37;34.18
73870;BME280;64924;42.140;24.762;2023-03-11T09:00:18;97649.72;;;21.81;32.98
73870;BME280;64924;42.140;24.762;2023-03-11T09:02:44;97599.75;;;21.38;33.24
73870;BME280;64924;42.140;24.762;2023-03-11T09:05:09;97623.38;;;21.44;33.74
73870;BME280;64924;42.140;24.762;2023-03-11T09:07:35;97604.78;;;21.35;33.93
73870;BME280;64924;42.140;24.762;2023-03-11T09:10:01;97632.53;;;21.30;33.59
73870;BME280;64924;42.140;24.762;2023-03-11T09:12:29;97631.91;;;21.33;34.02
73870;BME280;64924;42.140;24.762;2023-03-11T09:14:55;97627.38;;;21.38;33.99
73870;BME280;64924;42.140;24.762;2023-03-11T09:17:20;97615.75;;;21.49;34.20
73870;BME280;64924;42.140;24.762;2023-03-11T09:19:46;97619.47;;;21.45;34.05
73870;BME280;64924;42.140;24.762;2023-03-11T09:22:12;97604.97;;;21.39;33.85
73870;BME280;64924;42.140;24.762;2023-03-11T09:24:37;97606.91;;;21.39;33.66
73870;BME280;64924;42.140;24.762;2023-03-11T09:27:03;97602.91;;;21.45;33.69
73870;BME280;64924;42.140;24.762;2023-03-11T09:29:28;97597.38;;;21.45;34.04
73870;BME280;64924;42.140;24.762;2023-03-11T09:31:54;97559.53;;;21.00;33.74
73870;BME280;64924;42.140;24.762;2023-03-11T09:34:20;97590.00;;;21.18;33.87
73870;BME280;64924;42.140;24.762;2023-03-11T09:36:45;97579.69;;;21.01;33.67
73870;BME280;64924;42.140;24.762;2023-03-11T09:39:11;97578.81;;;20.92;34.18
73870;BME280;64924;42.140;24.762;2023-03-11T09:41:54;97543.16;;;20.82;34.00
73870;BME280;64924;42.140;24.762;2023-03-11T09:52:55;97589.66;;;21.33;33.38
73870;BME280;64924;42.140;24.762;2023-03-11T09:55:32;97576.69;;;21.73;32.62
73870;BME280;64924;42.140;24.762;2023-03-11T09:58:01;97570.88;;;21.92;32.34
73870;BME280;64924;42.140;24.762;2023-03-11T10:00:28;97572.63;;;22.19;32.21
73870;BME280;64924;42.140;24.762;2023-03-11T10:02:54;97574.44;;;22.41;30.98
73870;BME280;64924;42.140;24.762;2023-03-11T10:05:25;97529.03;;;22.24;31.11
73870;BME280;64924;42.140;24.762;2023-03-11T10:08:15;97575.41;;;22.45;30.56
73870;BME280;64924;42.140;24.762;2023-03-11T10:10:53;97566.75;;;22.29;30.36
73870;BME280;64924;42.140;24.762;2023-03-11T10:13:38;97575.88;;;22.21;30.56
73870;BME280;64924;42.140;24.762;2023-03-11T10:16:23;97590.47;;;22.04;30.11
73870;BME280;64924;42.140;24.762;2023-03-11T10:24:55;97574.94;;;21.86;30.44
73870;BME280;64924;42.140;24.762;2023-03-11T10:27:38;97588.34;;;21.61;30.34
73870;BME280;64924;42.140;24.762;2023-03-11T10:33:00;97583.66;;;21.71;30.40
73870;BME280;64924;42.140;24.762;2023-03-11T10:35:37;97573.00;;;21.95;30.54
73870;BME280;64924;42.140;24.762;2023-03-11T10:38:23;97575.84;;;22.04;30.00
73870;BME280;64924;42.140;24.762;2023-03-11T10:40:53;97571.00;;;21.78;30.52
73870;BME280;64924;42.140;24.762;2023-03-11T10:45:45;97568.03;;;21.66;30.67
73870;BME280;64924;42.140;24.762;2023-03-11T10:48:18;97573.25;;;21.67;30.25
73870;BME280;64924;42.140;24.762;2023-03-11T10:51:00;97566.78;;;21.81;30.43
73870;BME280;64924;42.140;24.762;2023-03-11T10:53:26;97560.78;;;21.79;30.35
73870;BME280;64924;42.140;24.762;2023-03-11T10:55:54;97558.53;;;21.89;30.07
73870;BME280;64924;42.140;24.762;2023-03-11T10:58:23;97546.00;;;21.83;30.18
73870;BME280;64924;42.140;24.762;2023-03-11T11:01:05;97554.06;;;22.11;29.45
73870;BME280;64924;42.140;24.762;2023-03-11T11:03:40;97543.81;;;22.11;29.70
73870;BME280;64924;42.140;24.762;2023-03-11T11:06:18;97547.22;;;22.17;29.65
73870;BME280;64924;42.140;24.762;2023-03-11T11:08:45;97508.41;;;21.82;29.45
73870;BME280;64924;42.140;24.762;2023-03-11T11:11:23;97535.34;;;22.08;29.08
73870;BME280;64924;42.140;24.762;2023-03-11T11:13:56;97508.31;;;22.05;29.09
73870;BME280;64924;42.140;24.762;2023-03-11T11:16:22;97513.72;;;22.27;28.82
73870;BME280;64924;42.140;24.762;2023-03-11T11:18:54;97481.47;;;22.31;28.13
73870;BME280;64924;42.140;24.762;2023-03-11T11:21:44;97525.78;;;22.83;28.01
73870;BME280;64924;42.140;24.762;2023-03-11T11:24:27;97539.78;;;22.60;28.44
73870;BME280;64924;42.140;24.762;2023-03-11T11:27:23;97500.34;;;22.29;28.54
73870;BME280;64924;42.140;24.762;2023-03-11T11:32:36;97521.19;;;22.18;28.39
73870;BME280;64924;42.140;24.762;2023-03-11T11:37:34;97519.22;;;21.53;28.71
73870;BME280;64924;42.140;24.762;2023-03-11T11:42:41;97518.91;;;21.23;28.47
73870;BME280;64924;42.140;24.762;2023-03-11T11:45:15;97503.84;;;21.29;28.20
73870;BME280;64924;42.140;24.762;2023-03-11T11:47:47;97520.59;;;21.33;28.78
73870;BME280;64924;42.140;24.762;2023-03-11T11:50:35;97510.94;;;21.53;28.66
73870;BME280;64924;42.140;24.762;2023-03-11T11:53:18;97514.56;;;21.31;28.24
73870;BME280;64924;42.140;24.762;2023-03-11T11:55:48;97507.47;;;21.39;27.23
73870;BME280;64924;42.140;24.762;2023-03-11T11:58:15;97504.56;;;21.44;25.96
73870;BME280;64924;42.140;24.762;2023-03-11T12:06:42;97482.56;;;21.78;25.44
73870;BME280;64924;42.140;24.762;2023-03-11T12:09:23;97489.03;;;21.74;25.58
73870;BME280;64924;42.140;24.762;2023-03-11T12:12:00;97451.44;;;21.47;26.14
73870;BME280;64924;42.140;24.762;2023-03-11T12:16:59;97475.25;;;21.82;26.10
73870;BME280;64924;42.140;24.762;2023-03-11T12:28:13;97470.44;;;22.14;25.59
73870;BME280;64924;42.140;24.762;2023-03-11T12:30:52;97467.50;;;22.10;26.06
73870;BME280;64924;42.140;24.762;2023-03-11T12:35:52;97467.31;;;22.07;25.72
73870;BME280;64924;42.140;24.762;2023-03-11T12:38:29;97473.84;;;22.19;25.38
73870;BME280;64924;42.140;24.762;2023-03-11T12:46:13;97462.56;;;21.81;26.04
73870;BME280;64924;42.140;24.762;2023-03-11T12:56:58;97483.13;;;21.49;26.26
73870;BME280;64924;42.140;24.762;2023-03-11T13:07:59;97462.31;;;20.81;28.32
73870;BME280;64924;42.140;24.762;2023-03-11T13:10:45;97490.47;;;21.23;28.79
73870;BME280;64924;42.140;24.762;2023-03-11T13:18:37;97524.94;;;21.25;28.85
73870;BME280;64924;42.140;24.762;2023-03-11T13:21:03;97516.03;;;21.28;28.98
73870;BME280;64924;42.140;24.762;2023-03-11T13:23:32;97547.19;;;21.51;28.61
73870;BME280;64924;42.140;24.762;2023-03-11T13:26:29;97544.78;;;21.67;28.36
73870;BME280;64924;42.140;24.762;2023-03-11T13:32:05;97540.53;;;21.61;28.97
73870;BME280;64924;42.140;24.762;2023-03-11T13:34:57;97515.53;;;21.26;29.03
73870;BME280;64924;42.140;24.762;2023-03-11T13:37:38;97548.78;;;21.44;29.34
73870;BME280;64924;42.140;24.762;2023-03-11T13:40:32;97524.81;;;21.30;29.05
73870;BME280;64924;42.140;24.762;2023-03-11T13:43:09;97545.72;;;21.23;29.31
73870;BME280;64924;42.140;24.762;2023-03-11T13:45:37;97540.09;;;21.06;29.52
73870;BME280;64924;42.140;24.762;2023-03-11T13:48:29;97549.09;;;21.20;29.57
73870;BME280;64924;42.140;24.762;2023-03-11T13:51:02;97544.53;;;21.15;29.65
73870;BME280;64924;42.140;24.762;2023-03-11T13:54:03;97540.91;;;21.06;29.36
73870;BME280;64924;42.140;24.762;2023-03-11T13:56:33;97538.91;;;20.98;29.43
73870;BME280;64924;42.140;24.762;2023-03-11T13:59:32;97550.44;;;21.00;28.69
73870;BME280;64924;42.140;24.762;2023-03-11T14:02:00;97547.06;;;20.81;28.93
73870;BME280;64924;42.140;24.762;2023-03-11T14:04:31;97540.25;;;20.78;29.32
73870;BME280;64924;42.140;24.762;2023-03-11T14:06:57;97547.56;;;20.83;29.43
73870;BME280;64924;42.140;24.762;2023-03-11T14:09:25;97543.66;;;20.84;29.79
73870;BME280;64924;42.140;24.762;2023-03-11T14:12:03;97546.81;;;20.91;30.00
73870;BME280;64924;42.140;24.762;2023-03-11T14:14:41;97535.56;;;20.87;30.21
73870;BME280;64924;42.140;24.762;2023-03-11T14:17:13;97545.88;;;20.95;30.48
73870;BME280;64924;42.140;24.762;2023-03-11T14:19:39;97532.63;;;20.84;30.36
73870;BME280;64924;42.140;24.762;2023-03-11T14:22:07;97544.22;;;20.94;30.61
73870;BME280;64924;42.140;24.762;2023-03-11T14:24:33;97528.00;;;20.71;30.37